CES5478 ZUCK-ZSPD
Flight info
| Callsign | CES5478 |
|---|---|
| Flight time | N/A |
| Altitude | 37100 |
| Route | OLNER B213 OLPOV/K0804S1190 B213 WHA R343 EKIMU |
| Aircraft | A20N/M-SDE2E3FGHIRWXY/LB1 |
Departure
| Time | N/A |
|---|---|
| Airport | Chongqing Jiangbei International Airport (ZUCK) |
Arrival
| Time | 2026-04-30 11:53 |
|---|---|
| Airport | Shanghai Pudong International Airport (ZSPD) |
| Time | Latitude | Longitude | Altitude | Speed | Heading |
|---|---|---|---|---|---|
| 2026-04-30 10:10 | 30.08673 | 108.44023 | 35303 ft | 470 kts | 71° |
| 2026-04-30 10:10 | 30.09564 | 108.47618 | 35596 ft | 470 kts | 71° |
| 2026-04-30 10:10 | 30.10472 | 108.51276 | 35808 ft | 472 kts | 71° |
| 2026-04-30 10:11 | 30.11368 | 108.54893 | 36040 ft | 473 kts | 70° |
| 2026-04-30 10:11 | 30.12364 | 108.58543 | 36254 ft | 473 kts | 68° |
| 2026-04-30 10:11 | 30.13405 | 108.62125 | 36444 ft | 474 kts | 68° |
| 2026-04-30 10:11 | 30.14472 | 108.65737 | 36621 ft | 476 kts | 68° |
| 2026-04-30 10:12 | 30.15544 | 108.69386 | 36765 ft | 478 kts | 68° |
| 2026-04-30 10:12 | 30.16615 | 108.73037 | 36885 ft | 480 kts | 68° |
| 2026-04-30 10:12 | 30.17678 | 108.76685 | 37021 ft | 482 kts | 68° |
| 2026-04-30 10:12 | 30.18744 | 108.80365 | 37181 ft | 483 kts | 68° |
| 2026-04-30 10:13 | 30.19808 | 108.84033 | 37182 ft | 484 kts | 68° |
| 2026-04-30 10:13 | 30.21947 | 108.91419 | 37188 ft | 485 kts | 69° |
| 2026-04-30 10:14 | 30.23873 | 108.98891 | 37193 ft | 485 kts | 71° |
| 2026-04-30 10:14 | 30.26612 | 109.10114 | 37190 ft | 484 kts | 71° |
| 2026-04-30 10:15 | 30.28443 | 109.17615 | 37184 ft | 485 kts | 71° |
| 2026-04-30 10:15 | 30.30284 | 109.25124 | 37179 ft | 485 kts | 71° |
| 2026-04-30 10:16 | 30.32107 | 109.32614 | 37181 ft | 487 kts | 70° |
| 2026-04-30 10:17 | 30.34859 | 109.43894 | 37179 ft | 486 kts | 70° |
| 2026-04-30 10:17 | 30.37589 | 109.55177 | 37179 ft | 486 kts | 71° |
| 2026-04-30 10:18 | 30.39252 | 109.62812 | 37183 ft | 489 kts | 76° |
| 2026-04-30 10:19 | 30.40976 | 109.74461 | 37180 ft | 489 kts | 77° |
| 2026-04-30 10:19 | 30.42101 | 109.82187 | 37184 ft | 489 kts | 77° |
| 2026-04-30 10:20 | 30.43232 | 109.89940 | 37190 ft | 489 kts | 77° |
| 2026-04-30 10:20 | 30.44927 | 110.01617 | 37195 ft | 490 kts | 77° |
| 2026-04-30 10:21 | 30.46054 | 110.09415 | 37195 ft | 490 kts | 77° |
| 2026-04-30 10:21 | 30.47170 | 110.17158 | 37200 ft | 490 kts | 77° |
| 2026-04-30 10:22 | 30.48288 | 110.24957 | 37215 ft | 491 kts | 77° |
| 2026-04-30 10:22 | 30.49406 | 110.32781 | 37219 ft | 492 kts | 77° |
| 2026-04-30 10:23 | 30.50517 | 110.40593 | 37227 ft | 493 kts | 77° |
| 2026-04-30 10:23 | 30.51626 | 110.48462 | 37236 ft | 493 kts | 77° |
| 2026-04-30 10:24 | 30.52727 | 110.56268 | 37237 ft | 493 kts | 77° |
| 2026-04-30 10:24 | 30.53827 | 110.64135 | 37234 ft | 494 kts | 77° |
| 2026-04-30 10:25 | 30.54924 | 110.72001 | 37233 ft | 494 kts | 77° |
| 2026-04-30 10:25 | 30.56022 | 110.79906 | 37233 ft | 495 kts | 77° |
| 2026-04-30 10:26 | 30.57106 | 110.87746 | 37223 ft | 494 kts | 77° |
| 2026-04-30 10:26 | 30.58198 | 110.95697 | 37207 ft | 494 kts | 77° |
| 2026-04-30 10:27 | 30.59277 | 111.03575 | 37199 ft | 495 kts | 77° |
| 2026-04-30 10:27 | 30.60352 | 111.11475 | 37187 ft | 495 kts | 77° |
| 2026-04-30 10:28 | 30.61417 | 111.19325 | 37174 ft | 495 kts | 77° |
| 2026-04-30 10:28 | 30.62485 | 111.27259 | 37158 ft | 494 kts | 76° |
| 2026-04-30 10:29 | 30.63552 | 111.35163 | 37148 ft | 495 kts | 76° |
| 2026-04-30 10:29 | 30.64605 | 111.43053 | 37141 ft | 495 kts | 77° |
| 2026-04-30 10:30 | 30.65438 | 111.51040 | 37138 ft | 498 kts | 82° |
| 2026-04-30 10:30 | 30.65840 | 111.59090 | 37137 ft | 499 kts | 82° |
| 2026-04-30 10:31 | 30.66232 | 111.67182 | 37133 ft | 499 kts | 83° |
| 2026-04-30 10:31 | 30.66650 | 111.75285 | 37136 ft | 499 kts | 83° |
| 2026-04-30 10:32 | 30.67058 | 111.83328 | 37137 ft | 499 kts | 82° |
| 2026-04-30 10:32 | 30.67459 | 111.91366 | 37143 ft | 498 kts | 83° |
| 2026-04-30 10:33 | 30.67886 | 111.99432 | 37145 ft | 496 kts | 81° |
| 2026-04-30 10:33 | 30.68450 | 112.07413 | 37146 ft | 497 kts | 81° |
| 2026-04-30 10:34 | 30.69021 | 112.15490 | 37143 ft | 498 kts | 81° |
| 2026-04-30 10:34 | 30.69571 | 112.23521 | 37148 ft | 500 kts | 81° |
| 2026-04-30 10:35 | 30.70108 | 112.31563 | 37148 ft | 499 kts | 81° |
| 2026-04-30 10:35 | 30.70643 | 112.39622 | 37146 ft | 500 kts | 81° |
| 2026-04-30 10:36 | 30.71170 | 112.47649 | 37146 ft | 501 kts | 81° |
| 2026-04-30 10:36 | 30.71692 | 112.55736 | 37146 ft | 500 kts | 80° |
| 2026-04-30 10:37 | 30.72213 | 112.63773 | 37146 ft | 501 kts | 80° |
| 2026-04-30 10:37 | 30.72734 | 112.71864 | 37144 ft | 502 kts | 81° |
| 2026-04-30 10:38 | 30.73248 | 112.79984 | 37144 ft | 503 kts | 81° |
| 2026-04-30 10:38 | 30.73754 | 112.88095 | 37145 ft | 504 kts | 81° |
| 2026-04-30 10:39 | 30.74255 | 112.96265 | 37145 ft | 504 kts | 81° |
| 2026-04-30 10:39 | 30.74755 | 113.04407 | 37142 ft | 504 kts | 81° |
| 2026-04-30 10:40 | 30.75243 | 113.12575 | 37146 ft | 504 kts | 80° |
| 2026-04-30 10:40 | 30.75540 | 113.20731 | 37146 ft | 507 kts | 83° |
| 2026-04-30 10:41 | 30.75747 | 113.28944 | 37146 ft | 507 kts | 83° |
| 2026-04-30 10:41 | 30.75946 | 113.37103 | 37144 ft | 507 kts | 83° |
| 2026-04-30 10:42 | 30.76150 | 113.45295 | 37148 ft | 508 kts | 82° |
| 2026-04-30 10:42 | 30.76351 | 113.53565 | 37147 ft | 509 kts | 83° |
| 2026-04-30 10:43 | 30.76540 | 113.61839 | 37145 ft | 510 kts | 82° |
| 2026-04-30 10:43 | 30.76730 | 113.70040 | 37146 ft | 508 kts | 83° |
| 2026-04-30 10:44 | 30.76912 | 113.78302 | 37145 ft | 507 kts | 83° |
| 2026-04-30 10:44 | 30.77088 | 113.86542 | 37150 ft | 506 kts | 82° |
| 2026-04-30 10:45 | 30.77260 | 113.94682 | 37155 ft | 502 kts | 82° |
| 2026-04-30 10:45 | 30.77431 | 114.02821 | 37165 ft | 502 kts | 82° |
| 2026-04-30 10:46 | 30.77767 | 114.10893 | 37166 ft | 501 kts | 80° |
| 2026-04-30 10:46 | 30.78558 | 114.19004 | 37170 ft | 498 kts | 71° |
| 2026-04-30 10:47 | 30.80307 | 114.26817 | 37167 ft | 494 kts | 62° |
| 2026-04-30 10:47 | 30.82713 | 114.34240 | 37168 ft | 491 kts | 59° |
| 2026-04-30 10:48 | 30.85167 | 114.41676 | 37169 ft | 494 kts | 60° |
| 2026-04-30 10:48 | 30.87579 | 114.49153 | 37168 ft | 493 kts | 59° |
| 2026-04-30 10:49 | 30.90029 | 114.56664 | 37166 ft | 494 kts | 59° |
| 2026-04-30 10:49 | 30.92452 | 114.64130 | 37165 ft | 494 kts | 59° |
| 2026-04-30 10:50 | 30.94869 | 114.71610 | 37163 ft | 494 kts | 60° |
| 2026-04-30 10:50 | 30.97307 | 114.79170 | 37165 ft | 496 kts | 59° |
| 2026-04-30 10:51 | 30.99727 | 114.86713 | 37166 ft | 494 kts | 59° |
| 2026-04-30 10:51 | 31.02144 | 114.94237 | 37165 ft | 495 kts | 59° |
| 2026-04-30 10:52 | 31.04564 | 115.01779 | 37162 ft | 496 kts | 59° |
| 2026-04-30 10:52 | 31.06964 | 115.09299 | 37166 ft | 495 kts | 59° |
| 2026-04-30 10:53 | 31.09368 | 115.16851 | 37176 ft | 495 kts | 59° |
| 2026-04-30 10:53 | 31.11772 | 115.24428 | 37181 ft | 494 kts | 59° |
| 2026-04-30 10:54 | 31.14170 | 115.31950 | 37184 ft | 496 kts | 58° |
| 2026-04-30 10:54 | 31.16550 | 115.39278 | 37188 ft | 493 kts | 58° |
| 2026-04-30 10:55 | 31.18983 | 115.46767 | 37189 ft | 491 kts | 58° |
| 2026-04-30 10:55 | 31.21403 | 115.54256 | 37193 ft | 494 kts | 58° |
| 2026-04-30 10:56 | 31.23827 | 115.61794 | 37197 ft | 494 kts | 59° |
| 2026-04-30 10:56 | 31.26248 | 115.69352 | 37205 ft | 495 kts | 59° |
| 2026-04-30 10:57 | 31.28607 | 115.76728 | 37209 ft | 494 kts | 59° |
| 2026-04-30 10:57 | 31.31002 | 115.84230 | 37208 ft | 495 kts | 59° |
| 2026-04-30 10:58 | 31.33436 | 115.91808 | 37202 ft | 494 kts | 58° |
| 2026-04-30 10:58 | 31.35901 | 115.99311 | 37198 ft | 496 kts | 58° |
| 2026-04-30 10:59 | 31.38362 | 116.06853 | 37182 ft | 493 kts | 58° |
| 2026-04-30 10:59 | 31.40815 | 116.14379 | 37190 ft | 497 kts | 58° |
| 2026-04-30 11:00 | 31.43250 | 116.21916 | 37182 ft | 495 kts | 58° |
| 2026-04-30 11:00 | 31.45686 | 116.29465 | 37176 ft | 493 kts | 58° |
| 2026-04-30 11:01 | 31.48127 | 116.37030 | 37178 ft | 494 kts | 58° |
| 2026-04-30 11:01 | 31.50554 | 116.44567 | 37164 ft | 494 kts | 58° |
| 2026-04-30 11:02 | 31.52961 | 116.52083 | 37165 ft | 492 kts | 58° |
| 2026-04-30 11:02 | 31.55367 | 116.59592 | 37166 ft | 492 kts | 58° |
| 2026-04-30 11:03 | 31.57776 | 116.67135 | 37158 ft | 492 kts | 59° |
| 2026-04-30 11:04 | 31.61362 | 116.78393 | 37157 ft | 493 kts | 59° |
| 2026-04-30 11:04 | 31.63762 | 116.85965 | 37164 ft | 494 kts | 59° |
| 2026-04-30 11:05 | 31.66144 | 116.93506 | 37157 ft | 493 kts | 59° |
| 2026-04-30 11:05 | 31.68526 | 117.01050 | 37156 ft | 492 kts | 59° |
| 2026-04-30 11:06 | 31.70869 | 117.08587 | 37152 ft | 492 kts | 59° |
| 2026-04-30 11:06 | 31.73207 | 117.16182 | 37171 ft | 491 kts | 60° |
| 2026-04-30 11:07 | 31.75441 | 117.23807 | 37150 ft | 497 kts | 65° |
| 2026-04-30 11:07 | 31.76797 | 117.31911 | 37151 ft | 505 kts | 76° |
| 2026-04-30 11:08 | 31.76933 | 117.40121 | 37153 ft | 504 kts | 88° |
| 2026-04-30 11:08 | 31.76333 | 117.48319 | 37151 ft | 506 kts | 89° |
| 2026-04-30 11:09 | 31.75693 | 117.56612 | 37160 ft | 506 kts | 89° |
| 2026-04-30 11:09 | 31.75100 | 117.64860 | 37168 ft | 505 kts | 89° |
| 2026-04-30 11:10 | 31.74518 | 117.73139 | 36951 ft | 506 kts | 90° |
| 2026-04-30 11:10 | 31.74262 | 117.76694 | 36752 ft | 506 kts | 90° |
| 2026-04-30 11:10 | 31.73960 | 117.80878 | 36492 ft | 506 kts | 89° |
| 2026-04-30 11:10 | 31.73659 | 117.85031 | 36243 ft | 506 kts | 90° |
| 2026-04-30 11:11 | 31.73362 | 117.89183 | 35723 ft | 507 kts | 90° |
| 2026-04-30 11:11 | 31.73061 | 117.93301 | 35453 ft | 507 kts | 90° |
| 2026-04-30 11:11 | 31.72760 | 117.97424 | 35482 ft | 506 kts | 89° |
| 2026-04-30 11:11 | 31.72459 | 118.01540 | 35226 ft | 505 kts | 89° |
| 2026-04-30 11:12 | 31.72161 | 118.05600 | 34976 ft | 498 kts | 89° |
| 2026-04-30 11:12 | 31.71860 | 118.09692 | 34727 ft | 497 kts | 89° |
| 2026-04-30 11:12 | 31.71569 | 118.13750 | 34477 ft | 497 kts | 89° |
| 2026-04-30 11:12 | 31.71290 | 118.17790 | 34231 ft | 497 kts | 88° |
| 2026-04-30 11:13 | 31.71012 | 118.21880 | 33975 ft | 497 kts | 89° |
| 2026-04-30 11:13 | 31.70735 | 118.25970 | 33716 ft | 499 kts | 89° |
| 2026-04-30 11:13 | 31.70455 | 118.30018 | 33471 ft | 500 kts | 89° |
| 2026-04-30 11:13 | 31.70166 | 118.34114 | 33223 ft | 500 kts | 89° |
| 2026-04-30 11:14 | 31.69876 | 118.38184 | 32978 ft | 499 kts | 89° |
| 2026-04-30 11:14 | 31.69589 | 118.42210 | 32718 ft | 498 kts | 89° |
| 2026-04-30 11:14 | 31.69305 | 118.46268 | 32477 ft | 500 kts | 89° |
| 2026-04-30 11:14 | 31.69009 | 118.50371 | 32236 ft | 500 kts | 89° |
| 2026-04-30 11:15 | 31.68710 | 118.54472 | 31991 ft | 499 kts | 89° |
| 2026-04-30 11:15 | 31.68419 | 118.58549 | 31747 ft | 501 kts | 89° |
| 2026-04-30 11:15 | 31.68119 | 118.62663 | 31504 ft | 499 kts | 89° |
| 2026-04-30 11:15 | 31.67823 | 118.66701 | 31260 ft | 499 kts | 89° |
| 2026-04-30 11:16 | 31.67533 | 118.70675 | 31029 ft | 500 kts | 90° |
| 2026-04-30 11:16 | 31.67232 | 118.74759 | 30783 ft | 500 kts | 90° |
| 2026-04-30 11:16 | 31.66953 | 118.78542 | 30557 ft | 500 kts | 90° |
| 2026-04-30 11:16 | 31.66649 | 118.82616 | 30325 ft | 501 kts | 90° |
| 2026-04-30 11:17 | 31.66350 | 118.86595 | 30094 ft | 500 kts | 90° |
| 2026-04-30 11:17 | 31.66043 | 118.90673 | 29851 ft | 501 kts | 90° |
| 2026-04-30 11:17 | 31.65733 | 118.94759 | 29599 ft | 501 kts | 90° |
| 2026-04-30 11:17 | 31.65426 | 118.98837 | 29349 ft | 501 kts | 90° |
| 2026-04-30 11:18 | 31.65120 | 119.02885 | 29095 ft | 499 kts | 90° |
| 2026-04-30 11:18 | 31.64639 | 119.11033 | 28600 ft | 492 kts | 88° |
| 2026-04-30 11:18 | 31.64457 | 119.15026 | 28346 ft | 489 kts | 88° |
| 2026-04-30 11:19 | 31.64286 | 119.19035 | 28108 ft | 487 kts | 88° |
| 2026-04-30 11:19 | 31.64115 | 119.23004 | 27850 ft | 484 kts | 87° |
| 2026-04-30 11:19 | 31.63942 | 119.26927 | 27606 ft | 482 kts | 88° |
| 2026-04-30 11:19 | 31.63767 | 119.30809 | 27370 ft | 479 kts | 88° |
| 2026-04-30 11:20 | 31.63589 | 119.34718 | 27107 ft | 477 kts | 88° |
| 2026-04-30 11:20 | 31.63410 | 119.38628 | 26862 ft | 476 kts | 88° |
| 2026-04-30 11:20 | 31.63230 | 119.42522 | 26699 ft | 474 kts | 88° |
| 2026-04-30 11:20 | 31.63046 | 119.46384 | 26678 ft | 474 kts | 88° |
| 2026-04-30 11:21 | 31.62863 | 119.50226 | 26688 ft | 475 kts | 88° |
| 2026-04-30 11:21 | 31.62674 | 119.54156 | 26494 ft | 474 kts | 88° |
| 2026-04-30 11:21 | 31.62488 | 119.57989 | 26259 ft | 471 kts | 88° |
| 2026-04-30 11:21 | 31.62298 | 119.61861 | 26006 ft | 468 kts | 88° |
| 2026-04-30 11:22 | 31.62113 | 119.65655 | 25761 ft | 466 kts | 89° |
| 2026-04-30 11:22 | 31.61939 | 119.69312 | 25510 ft | 466 kts | 88° |
| 2026-04-30 11:22 | 31.61763 | 119.73215 | 25258 ft | 464 kts | 88° |
| 2026-04-30 11:22 | 31.61593 | 119.76996 | 25015 ft | 461 kts | 88° |
| 2026-04-30 11:23 | 31.61424 | 119.80728 | 24772 ft | 460 kts | 88° |
| 2026-04-30 11:23 | 31.61262 | 119.84180 | 24539 ft | 458 kts | 88° |
| 2026-04-30 11:23 | 31.60912 | 119.91715 | 24055 ft | 454 kts | 88° |
| 2026-04-30 11:24 | 31.60740 | 119.95382 | 23805 ft | 453 kts | 89° |
| 2026-04-30 11:24 | 31.60563 | 119.99081 | 23551 ft | 452 kts | 89° |
| 2026-04-30 11:24 | 31.60385 | 120.02768 | 23276 ft | 450 kts | 88° |
| 2026-04-30 11:25 | 31.60045 | 120.10067 | 22561 ft | 443 kts | 91° |
| 2026-04-30 11:25 | 31.59876 | 120.13688 | 22198 ft | 442 kts | 92° |
| 2026-04-30 11:25 | 31.59518 | 120.20844 | 21396 ft | 440 kts | 93° |
| 2026-04-30 11:26 | 31.59146 | 120.27982 | 20593 ft | 431 kts | 94° |
| 2026-04-30 11:26 | 31.58808 | 120.31449 | 20198 ft | 427 kts | 100° |
| 2026-04-30 11:26 | 31.58146 | 120.34840 | 19838 ft | 419 kts | 108° |
| 2026-04-30 11:27 | 31.57238 | 120.38081 | 19754 ft | 418 kts | 111° |
| 2026-04-30 11:27 | 31.56261 | 120.41308 | 19730 ft | 418 kts | 111° |
| 2026-04-30 11:27 | 31.55376 | 120.44215 | 19724 ft | 417 kts | 111° |
| 2026-04-30 11:27 | 31.54418 | 120.47395 | 19658 ft | 417 kts | 111° |
| 2026-04-30 11:28 | 31.52513 | 120.53793 | 19021 ft | 410 kts | 111° |
| 2026-04-30 11:28 | 31.51578 | 120.56947 | 18594 ft | 408 kts | 111° |
| 2026-04-30 11:28 | 31.50652 | 120.60069 | 18178 ft | 405 kts | 111° |
| 2026-04-30 11:29 | 31.49729 | 120.63178 | 17775 ft | 401 kts | 111° |
| 2026-04-30 11:29 | 31.48977 | 120.65707 | 17444 ft | 399 kts | 111° |
| 2026-04-30 11:29 | 31.47023 | 120.72271 | 16508 ft | 391 kts | 111° |
| 2026-04-30 11:30 | 31.45251 | 120.78216 | 15781 ft | 382 kts | 111° |
| 2026-04-30 11:30 | 31.44368 | 120.81126 | 15751 ft | 384 kts | 112° |
| 2026-04-30 11:30 | 31.43444 | 120.84097 | 15745 ft | 384 kts | 112° |
| 2026-04-30 11:31 | 31.42521 | 120.87041 | 15740 ft | 384 kts | 112° |
| 2026-04-30 11:31 | 31.41604 | 120.89967 | 15575 ft | 382 kts | 112° |
| 2026-04-30 11:31 | 31.40671 | 120.92907 | 15651 ft | 382 kts | 115° |
| 2026-04-30 11:31 | 31.39487 | 120.95657 | 15524 ft | 378 kts | 126° |
| 2026-04-30 11:32 | 31.37949 | 120.98135 | 15531 ft | 374 kts | 134° |
| 2026-04-30 11:32 | 31.36292 | 121.00476 | 15550 ft | 373 kts | 135° |
| 2026-04-30 11:32 | 31.34593 | 121.02823 | 15571 ft | 373 kts | 135° |
| 2026-04-30 11:33 | 31.31745 | 121.06786 | 15603 ft | 373 kts | 135° |
| 2026-04-30 11:33 | 31.30071 | 121.09137 | 15623 ft | 374 kts | 135° |
| 2026-04-30 11:33 | 31.28427 | 121.11453 | 15642 ft | 374 kts | 135° |
| 2026-04-30 11:33 | 31.26759 | 121.13809 | 15663 ft | 374 kts | 135° |
| 2026-04-30 11:34 | 31.25076 | 121.16187 | 15684 ft | 374 kts | 135° |
| 2026-04-30 11:34 | 31.23467 | 121.18460 | 15703 ft | 373 kts | 135° |
| 2026-04-30 11:34 | 31.21815 | 121.20795 | 15723 ft | 373 kts | 135° |
| 2026-04-30 11:34 | 31.20177 | 121.23114 | 15733 ft | 371 kts | 135° |
| 2026-04-30 11:35 | 31.18520 | 121.25457 | 15497 ft | 367 kts | 135° |
| 2026-04-30 11:35 | 31.16906 | 121.27735 | 15041 ft | 367 kts | 135° |
| 2026-04-30 11:35 | 31.15270 | 121.30039 | 14600 ft | 364 kts | 135° |
| 2026-04-30 11:35 | 31.13680 | 121.32286 | 14136 ft | 361 kts | 133° |
| 2026-04-30 11:36 | 31.12323 | 121.34784 | 13595 ft | 366 kts | 120° |
| 2026-04-30 11:36 | 31.11438 | 121.37565 | 13118 ft | 367 kts | 108° |
| 2026-04-30 11:36 | 31.10783 | 121.40438 | 12849 ft | 364 kts | 106° |
| 2026-04-30 11:36 | 31.10168 | 121.43317 | 12505 ft | 360 kts | 105° |
| 2026-04-30 11:37 | 31.09565 | 121.46107 | 11996 ft | 358 kts | 106° |
| 2026-04-30 11:37 | 31.08941 | 121.48912 | 11470 ft | 357 kts | 106° |
| 2026-04-30 11:37 | 31.08301 | 121.51725 | 11048 ft | 354 kts | 106° |
| 2026-04-30 11:37 | 31.07670 | 121.54469 | 10645 ft | 350 kts | 106° |
| 2026-04-30 11:38 | 31.07044 | 121.57172 | 10222 ft | 345 kts | 105° |
| 2026-04-30 11:38 | 31.06415 | 121.59891 | 9856 ft | 341 kts | 105° |
| 2026-04-30 11:38 | 31.05799 | 121.62555 | 9795 ft | 342 kts | 104° |
| 2026-04-30 11:38 | 31.05170 | 121.65273 | 9787 ft | 336 kts | 105° |
| 2026-04-30 11:39 | 31.04585 | 121.67812 | 9782 ft | 319 kts | 105° |
| 2026-04-30 11:39 | 31.03789 | 121.70195 | 9763 ft | 313 kts | 126° |
| 2026-04-30 11:39 | 31.02222 | 121.71865 | 9541 ft | 300 kts | 156° |
| 2026-04-30 11:39 | 31.00267 | 121.72671 | 9081 ft | 297 kts | 169° |
| 2026-04-30 11:40 | 30.98242 | 121.73235 | 8615 ft | 297 kts | 170° |
| 2026-04-30 11:40 | 30.96252 | 121.73828 | 8223 ft | 296 kts | 168° |
| 2026-04-30 11:40 | 30.94259 | 121.74506 | 7843 ft | 294 kts | 166° |
| 2026-04-30 11:40 | 30.92274 | 121.75232 | 7426 ft | 292 kts | 165° |
| 2026-04-30 11:41 | 30.90340 | 121.75954 | 6991 ft | 292 kts | 165° |
| 2026-04-30 11:41 | 30.88386 | 121.76688 | 6571 ft | 289 kts | 164° |
| 2026-04-30 11:41 | 30.86546 | 121.77382 | 6144 ft | 288 kts | 164° |
| 2026-04-30 11:41 | 30.84609 | 121.78116 | 5712 ft | 287 kts | 163° |
| 2026-04-30 11:42 | 30.82717 | 121.78829 | 5315 ft | 285 kts | 163° |
| 2026-04-30 11:42 | 30.80831 | 121.79542 | 4910 ft | 284 kts | 163° |
| 2026-04-30 11:42 | 30.78942 | 121.80251 | 4499 ft | 282 kts | 163° |
| 2026-04-30 11:42 | 30.77100 | 121.80938 | 4171 ft | 273 kts | 163° |
| 2026-04-30 11:43 | 30.75327 | 121.81623 | 3834 ft | 260 kts | 158° |
| 2026-04-30 11:43 | 30.73887 | 121.82843 | 3354 ft | 255 kts | 120° |
| 2026-04-30 11:43 | 30.73418 | 121.84747 | 3131 ft | 236 kts | 81° |
| 2026-04-30 11:43 | 30.73840 | 121.86520 | 3004 ft | 227 kts | 64° |
| 2026-04-30 11:44 | 30.74425 | 121.88242 | 2994 ft | 229 kts | 65° |
| 2026-04-30 11:44 | 30.74977 | 121.89986 | 3003 ft | 229 kts | 66° |
| 2026-04-30 11:44 | 30.75621 | 121.91657 | 2990 ft | 217 kts | 46° |
| 2026-04-30 11:44 | 30.76798 | 121.92533 | 2969 ft | 192 kts | 9° |
| 2026-04-30 11:45 | 30.78058 | 121.92502 | 2984 ft | 173 kts | 343° |
| 2026-04-30 11:45 | 30.79217 | 121.92077 | 3068 ft | 174 kts | 341° |
| 2026-04-30 11:45 | 30.80366 | 121.91631 | 3022 ft | 173 kts | 341° |
| 2026-04-30 11:45 | 30.81523 | 121.91181 | 3007 ft | 173 kts | 341° |
| 2026-04-30 11:46 | 30.82667 | 121.90737 | 3000 ft | 173 kts | 341° |
| 2026-04-30 11:46 | 30.83820 | 121.90293 | 2999 ft | 173 kts | 341° |
| 2026-04-30 11:46 | 30.84966 | 121.89859 | 2999 ft | 173 kts | 341° |
| 2026-04-30 11:46 | 30.86126 | 121.89421 | 2997 ft | 173 kts | 341° |
| 2026-04-30 11:47 | 30.87267 | 121.88989 | 2997 ft | 173 kts | 341° |
| 2026-04-30 11:47 | 30.88416 | 121.88557 | 2997 ft | 173 kts | 342° |
| 2026-04-30 11:47 | 30.89571 | 121.88121 | 2998 ft | 173 kts | 341° |
| 2026-04-30 11:47 | 30.90721 | 121.87686 | 2998 ft | 173 kts | 342° |
| 2026-04-30 11:48 | 30.91876 | 121.87251 | 2997 ft | 173 kts | 342° |
| 2026-04-30 11:48 | 30.93031 | 121.86816 | 2996 ft | 174 kts | 341° |
| 2026-04-30 11:48 | 30.94188 | 121.86380 | 2997 ft | 174 kts | 341° |
| 2026-04-30 11:48 | 30.95350 | 121.85938 | 2996 ft | 174 kts | 341° |
| 2026-04-30 11:49 | 30.96500 | 121.85502 | 2997 ft | 174 kts | 341° |
| 2026-04-30 11:49 | 30.97672 | 121.85060 | 2995 ft | 174 kts | 341° |
| 2026-04-30 11:49 | 30.98826 | 121.84624 | 2883 ft | 174 kts | 341° |
| 2026-04-30 11:49 | 30.99974 | 121.84191 | 2646 ft | 169 kts | 342° |
| 2026-04-30 11:50 | 31.01064 | 121.83782 | 2397 ft | 155 kts | 341° |
| 2026-04-30 11:50 | 31.02042 | 121.83414 | 2179 ft | 143 kts | 341° |
| 2026-04-30 11:50 | 31.02981 | 121.83057 | 2031 ft | 139 kts | 341° |
| 2026-04-30 11:50 | 31.03903 | 121.82707 | 1848 ft | 138 kts | 341° |
| 2026-04-30 11:51 | 31.04815 | 121.82363 | 1658 ft | 137 kts | 341° |
| 2026-04-30 11:51 | 31.05721 | 121.82020 | 1467 ft | 137 kts | 341° |
| 2026-04-30 11:51 | 31.06636 | 121.81676 | 1275 ft | 136 kts | 340° |
| 2026-04-30 11:51 | 31.07537 | 121.81337 | 1086 ft | 136 kts | 340° |
| 2026-04-30 11:52 | 31.08443 | 121.80994 | 898 ft | 135 kts | 341° |
| 2026-04-30 11:52 | 31.09348 | 121.80669 | 707 ft | 135 kts | 342° |
| 2026-04-30 11:52 | 31.10234 | 121.80338 | 538 ft | 134 kts | 340° |
| 2026-04-30 11:52 | 31.11107 | 121.79991 | 375 ft | 134 kts | 341° |
| 2026-04-30 11:53 | 31.11983 | 121.79657 | 198 ft | 134 kts | 340° |
| 2026-04-30 11:53 | 31.12882 | 121.79318 | 32 ft | 133 kts | 341° |
| 2026-04-30 11:53 | 31.13650 | 121.79024 | 27 ft | 91 kts | 342° |
| 2026-04-30 11:53 | 31.14091 | 121.78873 | 26 ft | 38 kts | 356° |
| 2026-04-30 11:54 | 31.14251 | 121.78883 | 25 ft | 13 kts | 10° |
| 2026-04-30 11:54 | 31.14349 | 121.78903 | 24 ft | 14 kts | 10° |
| 2026-04-30 11:54 | 31.14443 | 121.78921 | 24 ft | 13 kts | 4° |
| 2026-04-30 11:54 | 31.14538 | 121.78902 | 24 ft | 14 kts | 342° |
| 2026-04-30 11:55 | 31.14634 | 121.78866 | 24 ft | 14 kts | 342° |
| 2026-04-30 11:55 | 31.14735 | 121.78828 | 24 ft | 15 kts | 341° |
| 2026-04-30 11:55 | 31.14830 | 121.78792 | 24 ft | 14 kts | 342° |
| 2026-04-30 11:55 | 31.14927 | 121.78755 | 24 ft | 12 kts | 342° |
| 2026-04-30 11:56 | 31.15016 | 121.78722 | 24 ft | 14 kts | 342° |
| 2026-04-30 11:56 | 31.15093 | 121.78707 | 23 ft | 8 kts | 37° |
| 2026-04-30 11:56 | 31.15114 | 121.78770 | 24 ft | 9 kts | 73° |
| 2026-04-30 11:56 | 31.15135 | 121.78845 | 25 ft | 10 kts | 72° |
| 2026-04-30 11:57 | 31.15158 | 121.78928 | 26 ft | 10 kts | 72° |
| 2026-04-30 11:57 | 31.15179 | 121.79005 | 27 ft | 9 kts | 72° |
| 2026-04-30 11:57 | 31.15200 | 121.79081 | 29 ft | 10 kts | 72° |
| 2026-04-30 11:57 | 31.15225 | 121.79168 | 28 ft | 10 kts | 72° |
| 2026-04-30 11:58 | 31.15252 | 121.79264 | 22 ft | 10 kts | 72° |
| 2026-04-30 11:58 | 31.15282 | 121.79368 | 8 ft | 11 kts | 72° |
| 2026-04-30 11:58 | 31.15326 | 121.79435 | 0 ft | 8 kts | 27° |
| 2026-04-30 11:58 | 31.15387 | 121.79430 | 0 ft | 6 kts | 341° |
| 2026-04-30 11:59 | 31.15425 | 121.79421 | 0 ft | 4 kts | 20° |
| 2026-04-30 11:59 | 31.15442 | 121.79443 | 1 ft | 0 kts | 69° |
| 2026-04-30 11:59 | 31.15447 | 121.79461 | 2 ft | 5 kts | 73° |
| 2026-04-30 11:59 | 31.15456 | 121.79497 | 6 ft | 4 kts | 73° |
| 2026-04-30 12:00 | 31.15463 | 121.79524 | 9 ft | 2 kts | 73° |
| 2026-04-30 12:00 | 31.15467 | 121.79538 | 11 ft | 1 kts | 73° |
| 2026-04-30 12:00 | 31.15468 | 121.79541 | 11 ft | 0 kts | 73° |